createdAt,value
2018-11-29T00:00:44.167Z,8.40
2018-11-29T00:01:48.255Z,8.05
2018-11-29T00:02:52.600Z,7.95
2018-11-29T00:03:57.035Z,8.75
2018-11-29T00:05:01.487Z,8.43
2018-11-29T00:06:05.815Z,8.90
2018-11-29T00:07:10.159Z,7.50
2018-11-29T00:08:14.342Z,8.53
2018-11-29T00:09:18.743Z,7.97
2018-11-29T00:10:22.767Z,7.92
2018-11-29T00:11:27.051Z,7.85
2018-11-29T00:12:31.151Z,8.18
2018-11-29T00:13:35.236Z,8.25
2018-11-29T00:14:39.356Z,8.90
2018-11-29T00:15:43.497Z,8.18
2018-11-29T00:16:47.663Z,7.97
2018-11-29T00:17:51.863Z,7.83
2018-11-29T00:18:55.924Z,7.97
2018-11-29T00:20:00.167Z,8.58
2018-11-29T00:21:04.188Z,8.03
2018-11-29T00:22:08.268Z,8.03
2018-11-29T00:23:12.654Z,8.00
2018-11-29T00:24:16.721Z,8.80
2018-11-29T00:25:20.910Z,8.73
2018-11-29T00:26:25.049Z,8.20
2018-11-29T00:27:29.098Z,7.80
2018-11-29T00:28:33.144Z,9.10
2018-11-29T00:29:37.139Z,8.00
2018-11-29T00:30:42.200Z,7.95
2018-11-29T00:31:46.506Z,7.75
2018-11-29T00:32:51.581Z,8.58
2018-11-29T00:33:55.654Z,7.50
2018-11-29T00:34:59.891Z,7.60
2018-11-29T00:36:03.988Z,7.92
2018-11-29T00:37:08.122Z,8.10
2018-11-29T00:38:12.151Z,9.10
2018-11-29T00:39:16.127Z,7.90
2018-11-29T00:40:22.102Z,7.45
2018-11-29T00:41:26.145Z,6.90
2018-11-29T00:42:30.258Z,8.15
2018-11-29T00:43:34.516Z,7.97
2018-11-29T00:44:38.597Z,7.53
2018-11-29T00:45:42.714Z,7.95
2018-11-29T00:46:46.779Z,7.70
2018-11-29T00:47:51.247Z,8.00
2018-11-29T00:48:55.294Z,7.83
2018-11-29T00:49:59.332Z,7.60
2018-11-29T00:51:03.350Z,7.87
2018-11-29T00:52:07.565Z,7.10
2018-11-29T00:53:11.692Z,7.60
2018-11-29T00:54:15.780Z,8.10
2018-11-29T00:55:20.794Z,8.25
2018-11-29T00:56:24.913Z,8.55
2018-11-29T00:57:29.056Z,7.85
2018-11-29T00:58:33.041Z,7.60
2018-11-29T00:59:37.172Z,8.00
2018-11-29T01:00:41.141Z,8.33
2018-11-29T01:01:50.604Z,8.25
2018-11-29T01:02:58.817Z,7.55
2018-11-29T01:04:02.939Z,6.62
2018-11-29T01:05:07.097Z,8.00
2018-11-29T01:06:11.248Z,7.83
2018-11-29T01:07:15.339Z,6.85
2018-11-29T01:08:19.418Z,9.48
2018-11-29T01:09:23.475Z,8.53
2018-11-29T01:10:27.580Z,8.50
2018-11-29T01:11:31.624Z,6.42
2018-11-29T01:12:35.819Z,7.55
2018-11-29T01:13:39.886Z,8.05
2018-11-29T01:14:44.265Z,7.28
2018-11-29T01:15:48.438Z,7.95
2018-11-29T01:16:52.565Z,7.62
2018-11-29T01:17:56.585Z,7.65
2018-11-29T01:19:00.676Z,7.85
2018-11-29T01:20:06.836Z,7.55
2018-11-29T01:21:09.990Z,7.50
2018-11-29T01:22:14.136Z,7.20
2018-11-29T01:23:18.238Z,7.60
2018-11-29T01:24:22.290Z,8.03
2018-11-29T01:25:26.310Z,7.67
2018-11-29T01:26:30.421Z,6.50
2018-11-29T01:27:34.486Z,7.92
2018-11-29T01:28:38.815Z,7.70
2018-11-29T01:29:42.856Z,8.25
2018-11-29T01:30:46.955Z,7.12
2018-11-29T01:31:51.043Z,7.10
2018-11-29T01:32:55.156Z,6.70
2018-11-29T01:34:00.120Z,7.90
2018-11-29T01:35:04.184Z,7.87
2018-11-29T01:36:08.247Z,8.03
2018-11-29T01:37:12.330Z,7.45
2018-11-29T01:38:16.443Z,7.03
2018-11-29T01:39:20.532Z,6.78
2018-11-29T01:40:24.588Z,7.83
2018-11-29T01:41:28.647Z,8.05
2018-11-29T01:42:32.841Z,8.75
2018-11-29T01:43:36.930Z,7.37
2018-11-29T01:44:41.041Z,7.87
2018-11-29T01:45:45.083Z,8.18
2018-11-29T01:46:49.063Z,7.30
2018-11-29T01:47:53.223Z,7.25
2018-11-29T01:48:57.188Z,6.87
2018-11-29T01:50:01.352Z,7.42
2018-11-29T01:51:06.403Z,7.35
2018-11-29T01:52:12.732Z,7.55
2018-11-29T01:53:17.163Z,8.03
2018-11-29T01:54:21.210Z,9.15
2018-11-29T01:55:25.235Z,8.05
2018-11-29T01:56:29.281Z,8.08
2018-11-29T01:57:33.361Z,7.35
2018-11-29T01:58:37.411Z,8.25
2018-11-29T01:59:41.514Z,8.08
2018-11-29T02:00:45.608Z,8.03
2018-11-29T02:01:49.663Z,7.55
2018-11-29T02:02:53.830Z,7.53
2018-11-29T02:03:57.955Z,8.10
2018-11-29T02:05:02.141Z,7.40
2018-11-29T02:06:06.746Z,7.97
2018-11-29T02:07:10.824Z,7.28
2018-11-29T02:08:14.797Z,8.15
2018-11-29T02:09:18.881Z,7.75
2018-11-29T02:10:27.460Z,8.50
2018-11-29T02:11:31.659Z,8.25
2018-11-29T02:12:35.837Z,7.58
2018-11-29T02:13:40.177Z,8.10
2018-11-29T02:14:44.331Z,7.95
2018-11-29T02:15:48.394Z,8.00
2018-11-29T02:16:53.513Z,7.92
2018-11-29T02:17:57.677Z,8.75
2018-11-29T02:19:02.085Z,7.62
2018-11-29T02:20:08.507Z,9.08
2018-11-29T02:21:12.554Z,8.13
2018-11-29T02:22:16.762Z,8.35
2018-11-29T02:23:21.154Z,7.60
2018-11-29T02:24:25.157Z,8.80
2018-11-29T02:25:29.278Z,9.10
2018-11-29T02:26:33.355Z,7.08
2018-11-29T02:27:37.723Z,8.25
2018-11-29T02:28:45.795Z,8.05
2018-11-29T02:29:49.984Z,8.10
2018-11-29T02:30:54.095Z,8.25
2018-11-29T02:31:58.192Z,8.83
2018-11-29T02:33:02.342Z,8.35
2018-11-29T02:34:06.678Z,7.65
2018-11-29T02:35:10.767Z,8.80
2018-11-29T02:36:14.893Z,8.15
2018-11-29T02:37:18.988Z,7.92
2018-11-29T02:38:23.162Z,8.60
2018-11-29T02:39:27.223Z,8.43
2018-11-29T02:40:31.449Z,7.97
2018-11-29T02:41:35.879Z,8.33
2018-11-29T02:42:40.091Z,8.10
2018-11-29T02:43:44.205Z,8.90
2018-11-29T02:44:48.410Z,7.60
2018-11-29T02:45:52.507Z,8.73
2018-11-29T02:46:56.632Z,8.78
2018-11-29T02:48:00.640Z,8.03
2018-11-29T02:49:04.839Z,8.88
2018-11-29T02:50:09.960Z,10.13
2018-11-29T02:51:14.130Z,8.13
2018-11-29T02:52:18.272Z,8.63
2018-11-29T02:53:22.407Z,9.18
2018-11-29T02:54:26.923Z,8.95
2018-11-29T02:55:30.961Z,8.28
2018-11-29T02:56:35.030Z,9.18
2018-11-29T02:57:39.331Z,8.95
2018-11-29T02:58:43.321Z,9.05
2018-11-29T02:59:47.327Z,9.13
2018-11-29T03:00:51.418Z,8.60
2018-11-29T03:01:55.636Z,8.18
2018-11-29T03:02:59.723Z,7.92
2018-11-29T03:04:03.729Z,9.75
2018-11-29T03:05:07.982Z,9.45
2018-11-29T03:06:11.991Z,9.83
2018-11-29T03:07:16.046Z,8.68
2018-11-29T03:08:20.054Z,9.70
2018-11-29T03:09:24.151Z,8.63
2018-11-29T03:10:29.210Z,8.83
2018-11-29T03:11:33.333Z,9.68
2018-11-29T03:12:37.525Z,9.05
2018-11-29T03:13:41.638Z,9.28
2018-11-29T03:14:45.788Z,9.58
2018-11-29T03:15:49.939Z,8.35
2018-11-29T03:16:54.091Z,8.43
2018-11-29T03:17:58.250Z,10.20
2018-11-29T03:19:02.423Z,8.68
2018-11-29T03:20:08.432Z,8.90
2018-11-29T03:21:12.688Z,10.70
2018-11-29T03:22:16.865Z,9.63
2018-11-29T03:23:21.286Z,9.73
2018-11-29T03:24:25.348Z,9.55
2018-11-29T03:25:29.807Z,10.50
2018-11-29T03:26:33.860Z,8.35
2018-11-29T03:27:38.068Z,9.68
2018-11-29T03:28:42.273Z,9.50
2018-11-29T03:29:46.437Z,11.00
2018-11-29T03:30:51.007Z,9.58
2018-11-29T03:31:55.170Z,8.55
2018-11-29T03:32:59.353Z,9.40
2018-11-29T03:34:03.406Z,10.45
2018-11-29T03:35:07.946Z,9.88
2018-11-29T03:36:12.071Z,9.18
2018-11-29T03:37:16.147Z,10.28
2018-11-29T03:38:20.317Z,10.45
2018-11-29T03:39:24.332Z,6.78
2018-11-29T03:40:29.023Z,9.43
2018-11-29T03:41:33.167Z,9.25
2018-11-29T03:42:37.420Z,10.23
2018-11-29T03:43:41.483Z,9.28
2018-11-29T03:44:45.491Z,9.38
2018-11-29T03:45:49.580Z,10.95
2018-11-29T03:46:53.669Z,10.25
2018-11-29T03:47:57.748Z,10.90
2018-11-29T03:49:01.863Z,10.55
2018-11-29T03:50:08.429Z,9.33
2018-11-29T03:51:12.515Z,9.68
2018-11-29T03:52:16.629Z,11.10
2018-11-29T03:53:20.727Z,9.78
2018-11-29T03:54:24.960Z,11.38
2018-11-29T03:55:28.959Z,10.58
2018-11-29T03:56:33.159Z,10.25
2018-11-29T03:57:37.908Z,10.15
2018-11-29T03:58:41.962Z,10.20
2018-11-29T03:59:46.181Z,11.05
2018-11-29T04:00:56.994Z,9.93
2018-11-29T04:02:01.056Z,9.88
2018-11-29T04:03:05.430Z,8.95
2018-11-29T04:04:09.486Z,11.05
2018-11-29T04:05:13.602Z,10.63
2018-11-29T04:06:17.811Z,11.10
2018-11-29T04:07:21.924Z,9.68
2018-11-29T04:08:25.999Z,10.50
2018-11-29T04:09:30.103Z,10.50
2018-11-29T04:10:34.203Z,11.60
2018-11-29T04:11:38.346Z,11.15
2018-11-29T04:12:42.534Z,10.30
2018-11-29T04:13:46.653Z,9.43
2018-11-29T04:14:50.744Z,11.22
2018-11-29T04:15:54.847Z,10.35
2018-11-29T04:16:59.066Z,10.82
2018-11-29T04:18:03.108Z,9.20
2018-11-29T04:19:07.145Z,11.18
2018-11-29T04:20:16.162Z,9.70
2018-11-29T04:21:20.250Z,9.98
2018-11-29T04:22:24.469Z,10.32
2018-11-29T04:23:28.627Z,11.40
2018-11-29T04:24:33.405Z,9.93
2018-11-29T04:25:37.437Z,10.43
2018-11-29T04:26:41.497Z,10.40
2018-11-29T04:27:45.554Z,10.05
2018-11-29T04:28:49.703Z,12.10
2018-11-29T04:29:53.775Z,10.70
2018-11-29T04:30:57.833Z,10.43
2018-11-29T04:32:02.028Z,11.00
2018-11-29T04:33:06.040Z,10.18
2018-11-29T04:34:10.124Z,10.13
2018-11-29T04:35:14.747Z,11.40
2018-11-29T04:36:18.831Z,10.15
2018-11-29T04:37:23.296Z,11.00
2018-11-29T04:38:27.283Z,10.55
2018-11-29T04:39:31.355Z,10.65
2018-11-29T04:40:35.411Z,10.68
2018-11-29T04:41:40.830Z,11.90
2018-11-29T04:42:44.934Z,11.20
2018-11-29T04:43:49.056Z,10.40
2018-11-29T04:44:53.156Z,11.08
2018-11-29T04:46:08.692Z,10.60
2018-11-29T04:47:12.821Z,10.60
2018-11-29T04:48:17.079Z,10.23
2018-11-29T04:49:21.184Z,10.70
2018-11-29T04:50:25.298Z,11.18
2018-11-29T04:51:29.386Z,11.45
2018-11-29T04:52:33.678Z,9.70
2018-11-29T04:53:37.804Z,10.82
2018-11-29T04:54:42.028Z,11.78
2018-11-29T04:55:46.228Z,11.00
2018-11-29T04:56:50.317Z,11.22
2018-11-29T04:57:54.376Z,10.70
2018-11-29T04:58:58.422Z,11.00
2018-11-29T05:00:02.539Z,11.35
2018-11-29T05:01:06.546Z,11.03
2018-11-29T05:02:11.948Z,11.10
2018-11-29T05:03:14.770Z,13.38
2018-11-29T05:04:19.002Z,12.00
2018-11-29T05:05:23.136Z,12.70
2018-11-29T05:06:27.234Z,12.45
2018-11-29T05:07:31.298Z,10.98
2018-11-29T05:08:35.394Z,11.60
2018-11-29T05:09:39.557Z,11.00
2018-11-29T05:10:43.620Z,11.10
2018-11-29T05:11:47.723Z,13.25
2018-11-29T05:12:51.815Z,11.43
2018-11-29T05:13:55.976Z,10.45
2018-11-29T05:14:59.990Z,12.20
2018-11-29T05:16:04.069Z,11.57
2018-11-29T05:17:08.162Z,13.05
2018-11-29T05:18:12.340Z,12.18
2018-11-29T05:19:16.424Z,13.28
2018-11-29T05:20:20.638Z,11.80
2018-11-29T05:21:24.689Z,13.10
2018-11-29T05:22:28.769Z,11.30
2018-11-29T05:23:33.019Z,13.03
2018-11-29T05:24:37.013Z,13.25
2018-11-29T05:25:41.106Z,12.33
2018-11-29T05:26:45.296Z,12.93
2018-11-29T05:27:49.468Z,11.40
2018-11-29T05:28:54.372Z,14.18
2018-11-29T05:29:58.592Z,13.38
2018-11-29T05:31:02.731Z,13.03
2018-11-29T05:32:06.957Z,13.60
2018-11-29T05:33:11.075Z,13.25
2018-11-29T05:34:15.141Z,12.55
2018-11-29T05:35:19.402Z,13.98
2018-11-29T05:36:23.488Z,13.00
2018-11-29T05:37:27.731Z,13.15
2018-11-29T05:38:31.866Z,13.93
2018-11-29T05:39:35.863Z,13.50
2018-11-29T05:40:39.957Z,12.55
2018-11-29T05:41:44.004Z,13.10
2018-11-29T05:42:48.325Z,13.68
2018-11-29T05:43:52.416Z,12.55
2018-11-29T05:44:56.552Z,14.28
2018-11-29T05:46:00.758Z,12.47
2018-11-29T05:47:05.561Z,13.90
2018-11-29T05:49:20.356Z,13.03
2018-11-29T05:50:24.446Z,12.55
2018-11-29T05:51:28.506Z,12.80
2018-11-29T05:52:32.848Z,14.05
2018-11-29T05:53:36.923Z,13.32
2018-11-29T05:54:41.054Z,11.90
2018-11-29T05:55:45.206Z,14.10
2018-11-29T05:56:49.459Z,13.05
2018-11-29T05:57:53.459Z,13.65
2018-11-29T05:58:57.535Z,13.20
2018-11-29T06:00:01.652Z,13.98
2018-11-29T06:01:08.600Z,14.05
2018-11-29T06:02:12.699Z,14.43
2018-11-29T06:03:16.936Z,15.00
2018-11-29T06:04:21.450Z,13.13
2018-11-29T06:05:25.675Z,14.75
2018-11-29T06:06:29.725Z,14.07
2018-11-29T06:07:33.842Z,13.83
2018-11-29T06:08:37.872Z,14.20
2018-11-29T06:09:42.130Z,13.50
2018-11-29T06:10:46.389Z,13.22
2018-11-29T06:11:50.492Z,12.60
2018-11-29T06:12:54.584Z,14.13
2018-11-29T06:13:58.644Z,13.90
2018-11-29T06:15:02.692Z,13.28
2018-11-29T06:16:06.842Z,14.38
2018-11-29T06:17:10.905Z,14.68
2018-11-29T06:18:14.955Z,13.70
2018-11-29T06:19:19.029Z,13.32
2018-11-29T06:20:23.133Z,13.68
2018-11-29T06:21:27.205Z,15.35
2018-11-29T06:22:31.263Z,15.40
2018-11-29T06:23:35.765Z,14.10
2018-11-29T06:24:40.290Z,13.50
2018-11-29T06:25:44.416Z,12.93
2018-11-29T06:26:48.762Z,13.35
2018-11-29T06:27:53.189Z,14.60
2018-11-29T06:28:57.271Z,13.05
2018-11-29T06:30:01.355Z,14.28
2018-11-29T06:31:05.779Z,14.90
2018-11-29T06:32:16.647Z,13.70
2018-11-29T06:33:20.796Z,14.10
2018-11-29T06:34:25.172Z,13.93
2018-11-29T06:35:29.538Z,13.95
2018-11-29T06:36:33.639Z,14.98
2018-11-29T06:37:38.041Z,14.68
2018-11-29T06:38:42.116Z,14.40
2018-11-29T06:39:46.144Z,14.18
2018-11-29T06:40:50.170Z,13.50
2018-11-29T06:41:54.397Z,13.85
2018-11-29T06:42:58.516Z,14.45
2018-11-29T06:44:02.682Z,13.75
2018-11-29T06:45:16.426Z,13.10
2018-11-29T06:46:21.019Z,13.70
2018-11-29T06:47:25.179Z,14.43
2018-11-29T06:48:29.181Z,13.05
2018-11-29T06:49:33.477Z,13.72
2018-11-29T06:50:37.665Z,14.28
2018-11-29T06:51:41.835Z,13.80
2018-11-29T06:52:46.816Z,13.13
2018-11-29T06:53:56.469Z,14.23
2018-11-29T06:55:00.564Z,13.22
2018-11-29T06:56:04.626Z,12.82
2018-11-29T06:57:09.461Z,13.48
2018-11-29T06:58:13.572Z,12.98
2018-11-29T06:59:17.651Z,15.05
2018-11-29T07:00:33.782Z,13.35
2018-11-29T07:01:37.935Z,13.15
2018-11-29T07:02:42.014Z,13.05
2018-11-29T07:03:46.076Z,13.13
2018-11-29T07:04:50.211Z,14.47
2018-11-29T07:05:54.304Z,12.98
2018-11-29T07:06:58.614Z,13.00
2018-11-29T07:08:02.763Z,13.95
2018-11-29T07:09:08.794Z,12.88
2018-11-29T07:10:15.204Z,13.60
2018-11-29T07:11:19.474Z,13.93
2018-11-29T07:12:23.655Z,13.20
2018-11-29T07:13:28.133Z,12.95
2018-11-29T07:14:37.115Z,12.82
2018-11-29T07:15:41.444Z,12.23
2018-11-29T07:16:45.486Z,13.30
2018-11-29T07:17:49.666Z,13.08
2018-11-29T07:18:53.729Z,14.50
2018-11-29T07:19:57.839Z,13.55
2018-11-29T07:21:13.708Z,12.65
2018-11-29T07:22:17.799Z,13.35
2018-11-29T07:23:21.927Z,14.58
2018-11-29T07:24:26.256Z,12.80
2018-11-29T07:25:30.367Z,12.60
2018-11-29T07:26:34.577Z,12.55
2018-11-29T07:27:39.359Z,12.07
2018-11-29T07:28:43.364Z,13.00
2018-11-29T07:29:47.470Z,13.18
2018-11-29T07:30:51.556Z,12.88
2018-11-29T07:31:55.800Z,11.65
2018-11-29T07:32:59.893Z,12.75
2018-11-29T07:34:04.007Z,12.58
2018-11-29T07:35:09.399Z,12.70
2018-11-29T07:36:14.018Z,12.33
2018-11-29T07:37:18.114Z,12.68
2018-11-29T07:38:22.355Z,12.45
2018-11-29T07:39:26.572Z,12.30
2018-11-29T07:40:30.686Z,13.20
2018-11-29T07:41:34.754Z,13.38
2018-11-29T07:42:39.012Z,12.93
2018-11-29T07:43:43.048Z,14.00
2018-11-29T07:44:47.357Z,13.13
2018-11-29T07:45:51.424Z,13.20
2018-11-29T07:46:55.674Z,12.10
2018-11-29T07:47:59.683Z,14.03
2018-11-29T07:49:03.744Z,13.08
2018-11-29T07:50:17.143Z,13.78
2018-11-29T07:51:21.289Z,12.00
2018-11-29T07:52:25.378Z,12.85
2018-11-29T07:53:29.545Z,13.55
2018-11-29T07:54:33.739Z,13.25
2018-11-29T07:55:37.875Z,13.03
2018-11-29T07:56:41.975Z,11.40
2018-11-29T07:57:46.956Z,11.68
2018-11-29T07:58:52.429Z,11.50
2018-11-29T07:59:55.356Z,12.43
2018-11-29T08:00:59.476Z,12.73
2018-11-29T08:02:03.675Z,11.33
2018-11-29T08:03:07.727Z,13.68
2018-11-29T08:04:11.910Z,13.50
2018-11-29T08:05:16.475Z,11.93
2018-11-29T08:06:21.532Z,13.18
2018-11-29T08:07:25.584Z,11.93
2018-11-29T08:08:29.819Z,13.30
2018-11-29T08:09:33.846Z,12.88
2018-11-29T08:10:38.157Z,12.63
2018-11-29T08:11:42.258Z,12.50
2018-11-29T08:12:46.367Z,12.80
2018-11-29T08:13:50.459Z,12.55
2018-11-29T08:14:54.715Z,13.40
2018-11-29T08:15:58.739Z,12.23
2018-11-29T08:17:03.077Z,11.97
2018-11-29T08:18:07.286Z,14.38
2018-11-29T08:19:11.518Z,13.00
2018-11-29T08:20:18.677Z,13.05
2018-11-29T08:21:22.790Z,12.60
2018-11-29T08:22:26.863Z,13.15
2018-11-29T08:23:31.024Z,12.50
2018-11-29T08:24:35.283Z,12.98
2018-11-29T08:25:39.505Z,12.30
2018-11-29T08:26:43.525Z,13.58
2018-11-29T08:27:47.878Z,15.05
2018-11-29T08:28:51.990Z,13.40
2018-11-29T08:29:56.117Z,13.15
2018-11-29T08:31:00.343Z,16.35
2018-11-29T08:32:04.376Z,13.48
2018-11-29T08:33:08.503Z,14.35
2018-11-29T08:34:12.776Z,12.25
2018-11-29T08:35:16.822Z,13.62
2018-11-29T08:36:21.019Z,11.88
2018-11-29T08:37:25.832Z,13.72
2018-11-29T08:38:31.769Z,12.65
2018-11-29T08:39:36.187Z,13.65
2018-11-29T08:40:40.210Z,13.28
2018-11-29T08:41:44.718Z,13.30
2018-11-29T08:42:48.879Z,13.45
2018-11-29T08:43:53.089Z,14.28
2018-11-29T08:44:57.415Z,14.75
2018-11-29T08:46:01.497Z,13.08
2018-11-29T08:47:05.831Z,13.90
2018-11-29T08:48:09.960Z,15.03
2018-11-29T08:49:14.299Z,13.95
2018-11-29T08:50:18.501Z,13.95
2018-11-29T08:51:22.790Z,12.45
2018-11-29T08:52:27.059Z,12.98
2018-11-29T08:53:31.237Z,11.75
2018-11-29T08:54:35.978Z,12.93
2018-11-29T08:55:40.218Z,12.18
2018-11-29T08:56:45.106Z,12.58
2018-11-29T08:57:50.235Z,13.72
2018-11-29T08:58:55.222Z,13.35
2018-11-29T09:00:00.263Z,12.47
2018-11-29T09:01:05.906Z,12.85
2018-11-29T09:02:10.132Z,13.88
2018-11-29T09:03:14.986Z,12.65
2018-11-29T09:04:19.951Z,12.85
2018-11-29T09:05:23.999Z,14.00
2018-11-29T09:06:28.089Z,13.78
2018-11-29T09:07:32.260Z,13.48
2018-11-29T09:08:36.391Z,14.25
2018-11-29T09:09:40.677Z,12.82
2018-11-29T09:10:45.027Z,11.57
2018-11-29T09:11:49.093Z,14.00
2018-11-29T09:12:53.329Z,14.40
2018-11-29T09:13:57.656Z,13.50
2018-11-29T09:15:02.228Z,14.33
2018-11-29T09:16:06.450Z,13.38
2018-11-29T09:17:10.512Z,12.40
2018-11-29T09:18:14.571Z,14.23
2018-11-29T09:19:18.745Z,14.83
2018-11-29T09:20:23.187Z,14.10
2018-11-29T09:21:27.320Z,13.80
2018-11-29T09:22:31.470Z,14.20
2018-11-29T09:23:35.593Z,14.35
2018-11-29T09:24:39.906Z,14.03
2018-11-29T09:25:44.103Z,12.33
2018-11-29T09:26:48.267Z,14.80
2018-11-29T09:27:52.837Z,14.15
2018-11-29T09:28:56.994Z,13.40
2018-11-29T09:30:01.208Z,12.82
2018-11-29T09:31:05.728Z,13.70
2018-11-29T09:32:09.805Z,14.53
2018-11-29T09:33:14.082Z,14.63
2018-11-29T09:34:18.297Z,14.40
2018-11-29T09:35:23.025Z,15.25
2018-11-29T09:36:27.172Z,14.85
2018-11-29T09:37:31.248Z,14.33
2018-11-29T09:38:35.394Z,13.75
2018-11-29T09:39:39.580Z,13.95
2018-11-29T09:40:43.696Z,14.83
2018-11-29T09:41:47.806Z,13.90
2018-11-29T09:42:51.934Z,14.80
2018-11-29T09:43:56.108Z,15.28
2018-11-29T09:45:00.125Z,14.83
2018-11-29T09:46:04.230Z,14.65
2018-11-29T09:47:08.388Z,14.93
2018-11-29T09:48:12.694Z,14.20
2018-11-29T09:49:16.917Z,14.63
2018-11-29T09:50:21.084Z,14.60
2018-11-29T09:51:25.186Z,15.08
2018-11-29T09:52:29.260Z,15.15
2018-11-29T09:53:33.351Z,13.72
2018-11-29T09:54:37.436Z,15.40
2018-11-29T09:55:41.611Z,14.53
2018-11-29T09:56:45.659Z,15.15
2018-11-29T09:57:50.711Z,15.00
2018-11-29T09:58:54.839Z,12.43
2018-11-29T09:59:59.685Z,14.30
2018-11-29T10:01:03.748Z,13.35
2018-11-29T10:02:07.911Z,15.03
2018-11-29T10:03:13.434Z,13.03
2018-11-29T10:04:17.686Z,14.50
2018-11-29T10:05:22.194Z,14.33
2018-11-29T10:06:26.475Z,14.83
2018-11-29T10:07:30.551Z,14.43
2018-11-29T10:08:34.951Z,13.93
2018-11-29T10:09:39.339Z,14.20
2018-11-29T10:10:43.414Z,14.38
2018-11-29T10:11:47.517Z,14.90
2018-11-29T10:12:52.116Z,14.45
2018-11-29T10:13:56.139Z,14.60
2018-11-29T10:15:00.425Z,14.05
2018-11-29T10:16:04.552Z,14.20
2018-11-29T10:17:08.696Z,14.58
2018-11-29T10:18:12.929Z,16.02
2018-11-29T10:19:17.153Z,14.75
2018-11-29T10:20:21.299Z,14.23
2018-11-29T10:21:25.511Z,14.98
2018-11-29T10:22:29.675Z,14.53
2018-11-29T10:23:33.656Z,14.68
2018-11-29T10:24:37.751Z,14.18
2018-11-29T10:25:42.201Z,13.48
2018-11-29T10:26:46.294Z,14.47
2018-11-29T10:27:53.468Z,14.85
2018-11-29T10:28:57.711Z,14.13
2018-11-29T10:30:01.759Z,14.33
2018-11-29T10:31:06.900Z,15.78
2018-11-29T10:32:11.015Z,14.47
2018-11-29T10:33:15.102Z,16.30
2018-11-29T10:34:19.339Z,15.20
2018-11-29T10:35:23.488Z,15.20
2018-11-29T10:36:27.578Z,14.80
2018-11-29T10:37:31.963Z,15.13
2018-11-29T10:38:36.062Z,14.23
2018-11-29T10:39:40.437Z,14.38
2018-11-29T10:40:44.332Z,15.65
2018-11-29T10:41:48.578Z,15.65
2018-11-29T10:42:52.628Z,14.28
2018-11-29T10:43:56.741Z,14.68
2018-11-29T10:45:00.903Z,14.23
2018-11-29T10:46:05.436Z,13.65
2018-11-29T10:47:09.609Z,14.25
2018-11-29T10:48:15.374Z,16.17
2018-11-29T10:49:19.483Z,13.60
2018-11-29T10:50:23.558Z,14.75
2018-11-29T10:51:27.655Z,15.23
2018-11-29T10:52:31.730Z,15.98
2018-11-29T10:53:38.110Z,15.03
2018-11-29T10:54:40.837Z,15.05
2018-11-29T10:55:45.010Z,16.23
2018-11-29T10:56:49.193Z,15.95
2018-11-29T10:57:53.529Z,15.15
2018-11-29T10:58:57.571Z,12.33
2018-11-29T11:00:01.640Z,14.30
2018-11-29T11:01:11.681Z,14.65
2018-11-29T11:02:21.297Z,14.00
2018-11-29T11:03:25.421Z,13.83
2018-11-29T11:04:29.471Z,13.78
2018-11-29T11:05:33.621Z,12.07
2018-11-29T11:06:37.797Z,13.78
2018-11-29T11:07:42.052Z,13.80
2018-11-29T11:08:46.167Z,15.18
2018-11-29T11:09:50.508Z,13.90
2018-11-29T11:10:54.687Z,15.15
2018-11-29T11:11:58.888Z,15.70
2018-11-29T11:13:02.905Z,15.28
2018-11-29T11:14:07.210Z,14.18
2018-11-29T11:15:11.343Z,15.30
2018-11-29T11:16:15.492Z,13.95
2018-11-29T11:17:19.817Z,15.50
2018-11-29T11:18:23.899Z,13.22
2018-11-29T11:19:28.234Z,13.95
2018-11-29T11:20:32.416Z,14.58
2018-11-29T11:21:36.558Z,14.68
2018-11-29T11:22:40.685Z,14.80
2018-11-29T11:23:44.747Z,13.75
2018-11-29T11:24:48.819Z,15.80
2018-11-29T11:25:53.467Z,14.93
2018-11-29T11:26:57.757Z,12.88
2018-11-29T11:28:03.003Z,14.85
2018-11-29T11:29:07.123Z,15.00
2018-11-29T11:30:15.286Z,15.83
2018-11-29T11:31:19.356Z,15.38
2018-11-29T11:32:23.475Z,14.68
2018-11-29T11:33:27.637Z,15.68
2018-11-29T11:34:31.777Z,14.15
2018-11-29T11:35:35.995Z,15.68
2018-11-29T11:36:40.257Z,15.48
2018-11-29T11:37:44.718Z,13.70
2018-11-29T11:38:49.569Z,15.50
2018-11-29T11:39:53.675Z,15.63
2018-11-29T11:40:58.039Z,15.48
2018-11-29T11:42:02.230Z,14.18
2018-11-29T11:43:07.142Z,16.05
2018-11-29T11:44:11.169Z,14.00
2018-11-29T11:45:17.415Z,14.98
2018-11-29T11:46:21.500Z,16.65
2018-11-29T11:47:25.964Z,16.30
2018-11-29T11:48:30.077Z,16.02
2018-11-29T11:49:34.157Z,15.32
2018-11-29T11:50:38.686Z,12.35
2018-11-29T11:51:42.868Z,14.87
2018-11-29T11:52:47.011Z,10.82
2018-11-29T11:53:51.243Z,14.35
2018-11-29T11:54:55.348Z,14.40
2018-11-29T11:55:59.483Z,15.40
2018-11-29T11:57:03.691Z,13.95
2018-11-29T11:58:08.402Z,15.03
2018-11-29T11:59:12.481Z,14.20
2018-11-29T12:00:21.872Z,15.35
2018-11-29T12:01:26.035Z,14.10
2018-11-29T12:02:30.111Z,13.95
2018-11-29T12:03:34.146Z,14.45
2018-11-29T12:04:38.367Z,14.90
2018-11-29T12:05:42.515Z,13.20
2018-11-29T12:06:46.553Z,13.93
2018-11-29T12:07:50.605Z,13.40
2018-11-29T12:08:54.734Z,12.90
2018-11-29T12:09:58.941Z,14.07
2018-11-29T12:11:03.030Z,12.37
2018-11-29T12:12:07.069Z,13.45
2018-11-29T12:13:11.142Z,13.68
2018-11-29T12:14:15.227Z,14.43
2018-11-29T12:15:19.354Z,13.55
2018-11-29T12:16:23.351Z,15.23
2018-11-29T12:17:27.457Z,10.43
2018-11-29T12:18:32.196Z,13.22
2018-11-29T12:19:36.428Z,10.15
2018-11-29T12:20:40.870Z,13.48
2018-11-29T12:21:44.974Z,12.78
2018-11-29T12:22:49.096Z,13.03
2018-11-29T12:23:53.398Z,13.32
2018-11-29T12:24:57.497Z,13.80
2018-11-29T12:26:01.902Z,13.75
2018-11-29T12:27:06.665Z,14.18
2018-11-29T12:28:10.795Z,13.72
2018-11-29T12:29:14.927Z,13.15
2018-11-29T12:30:31.070Z,13.85
2018-11-29T12:31:35.131Z,13.53
2018-11-29T12:32:39.225Z,12.75
2018-11-29T12:33:43.308Z,13.08
2018-11-29T12:34:47.782Z,14.53
2018-11-29T12:35:51.811Z,13.18
2018-11-29T12:36:56.087Z,12.18
2018-11-29T12:38:00.169Z,13.75
2018-11-29T12:39:06.051Z,13.45
2018-11-29T12:40:11.471Z,13.53
2018-11-29T12:41:15.728Z,12.65
2018-11-29T12:42:19.768Z,15.58
2018-11-29T12:43:23.810Z,14.07
2018-11-29T12:44:27.820Z,10.95
2018-11-29T12:45:31.950Z,14.38
2018-11-29T12:46:36.038Z,13.70
2018-11-29T12:47:40.296Z,14.18
2018-11-29T12:48:44.496Z,14.65
2018-11-29T12:49:48.616Z,14.07
2018-11-29T12:50:53.018Z,14.70
2018-11-29T12:51:57.066Z,15.18
2018-11-29T12:53:01.103Z,13.30
2018-11-29T12:54:06.293Z,15.05
2018-11-29T12:55:10.985Z,13.70
2018-11-29T12:56:15.411Z,16.23
2018-11-29T12:57:19.694Z,15.00
2018-11-29T12:58:23.764Z,15.15
2018-11-29T12:59:27.848Z,14.13
2018-11-29T13:00:32.095Z,14.30
2018-11-29T13:01:36.210Z,16.20
2018-11-29T13:02:43.670Z,14.33
2018-11-29T13:03:47.802Z,15.10
2018-11-29T13:04:51.926Z,15.85
2018-11-29T13:05:55.994Z,16.07
2018-11-29T13:07:00.848Z,15.72
2018-11-29T13:08:06.276Z,17.40
2018-11-29T13:09:17.155Z,14.93
2018-11-29T13:10:23.854Z,16.35
2018-11-29T13:11:27.529Z,15.75
2018-11-29T13:12:31.839Z,15.10
2018-11-29T13:13:35.871Z,15.80
2018-11-29T13:14:39.976Z,15.38
2018-11-29T13:15:44.299Z,14.10
2018-11-29T13:16:48.408Z,14.00
2018-11-29T13:17:52.722Z,14.10
2018-11-29T13:18:56.795Z,15.53
2018-11-29T13:20:00.980Z,14.83
2018-11-29T13:21:05.060Z,14.80
2018-11-29T13:22:09.165Z,15.60
2018-11-29T13:23:13.544Z,14.95
2018-11-29T13:24:17.715Z,14.30
2018-11-29T13:25:23.022Z,15.10
2018-11-29T13:26:27.434Z,14.23
2018-11-29T13:27:31.539Z,15.38
2018-11-29T13:28:35.644Z,14.68
2018-11-29T13:29:39.767Z,10.32
2018-11-29T13:30:43.943Z,13.08
2018-11-29T13:31:48.178Z,13.22
2018-11-29T13:32:54.370Z,13.85
2018-11-29T13:33:58.384Z,14.98
2018-11-29T13:35:02.561Z,14.85
2018-11-29T13:36:07.074Z,14.35
2018-11-29T13:37:11.153Z,13.88
2018-11-29T13:38:16.327Z,15.53
2018-11-29T13:39:20.549Z,13.53
2018-11-29T13:40:24.800Z,14.73
2018-11-29T13:41:28.818Z,16.42
2018-11-29T13:42:32.878Z,15.15
2018-11-29T13:43:36.969Z,13.32
2018-11-29T13:44:41.013Z,12.65
2018-11-29T13:45:45.078Z,15.20
2018-11-29T13:46:49.144Z,13.05
2018-11-29T13:47:53.268Z,14.60
2018-11-29T13:48:57.373Z,13.85
2018-11-29T13:50:01.408Z,13.53
2018-11-29T13:51:05.731Z,14.40
2018-11-29T13:52:09.777Z,15.95
2018-11-29T13:53:14.491Z,13.72
2018-11-29T13:54:18.097Z,13.78
2018-11-29T13:55:22.156Z,12.95
2018-11-29T13:56:26.235Z,14.33
2018-11-29T13:57:30.474Z,15.48
2018-11-29T13:58:34.658Z,14.00